sensor_id;sensor_type;location;lat;lon;timestamp;P1;durP1;ratioP1;P2;durP2;ratioP2
7444;SDS011;3764;48.126;11.594;2023-02-15T00:00:04;17.80;;;11.70;;
7444;SDS011;3764;48.126;11.594;2023-02-15T00:02:33;18.15;;;12.80;;
7444;SDS011;3764;48.126;11.594;2023-02-15T00:05:01;20.90;;;13.15;;
7444;SDS011;3764;48.126;11.594;2023-02-15T00:07:29;37.45;;;13.98;;
7444;SDS011;3764;48.126;11.594;2023-02-15T00:09:56;22.50;;;13.20;;
7444;SDS011;3764;48.126;11.594;2023-02-15T00:12:23;24.70;;;13.60;;
7444;SDS011;3764;48.126;11.594;2023-02-15T00:14:50;19.77;;;13.18;;
7444;SDS011;3764;48.126;11.594;2023-02-15T00:17:17;19.83;;;11.30;;
7444;SDS011;3764;48.126;11.594;2023-02-15T00:19:44;18.58;;;12.57;;
7444;SDS011;3764;48.126;11.594;2023-02-15T00:22:12;19.30;;;12.45;;
7444;SDS011;3764;48.126;11.594;2023-02-15T00:24:40;19.77;;;12.75;;
7444;SDS011;3764;48.126;11.594;2023-02-15T00:27:07;17.58;;;12.68;;
7444;SDS011;3764;48.126;11.594;2023-02-15T00:29:34;19.65;;;13.05;;
7444;SDS011;3764;48.126;11.594;2023-02-15T00:32:01;20.30;;;11.55;;
7444;SDS011;3764;48.126;11.594;2023-02-15T00:34:28;20.15;;;12.60;;
7444;SDS011;3764;48.126;11.594;2023-02-15T00:36:55;19.23;;;11.15;;
7444;SDS011;3764;48.126;11.594;2023-02-15T00:39:24;16.85;;;10.82;;
7444;SDS011;3764;48.126;11.594;2023-02-15T00:41:52;18.33;;;12.50;;
7444;SDS011;3764;48.126;11.594;2023-02-15T00:44:19;19.92;;;12.82;;
7444;SDS011;3764;48.126;11.594;2023-02-15T00:46:46;19.52;;;12.57;;
7444;SDS011;3764;48.126;11.594;2023-02-15T00:49:13;18.75;;;13.10;;
7444;SDS011;3764;48.126;11.594;2023-02-15T00:51:40;18.95;;;11.23;;
7444;SDS011;3764;48.126;11.594;2023-02-15T00:54:07;16.75;;;10.80;;
7444;SDS011;3764;48.126;11.594;2023-02-15T00:56:36;15.30;;;10.02;;
7444;SDS011;3764;48.126;11.594;2023-02-15T00:59:03;16.60;;;12.57;;
7444;SDS011;3764;48.126;11.594;2023-02-15T01:01:30;14.05;;;11.05;;
7444;SDS011;3764;48.126;11.594;2023-02-15T01:03:57;16.73;;;11.30;;
7444;SDS011;3764;48.126;11.594;2023-02-15T01:06:24;16.00;;;11.07;;
7444;SDS011;3764;48.126;11.594;2023-02-15T01:08:51;25.35;;;10.65;;
7444;SDS011;3764;48.126;11.594;2023-02-15T01:11:20;23.98;;;11.68;;
7444;SDS011;3764;48.126;11.594;2023-02-15T01:13:50;15.10;;;10.13;;
7444;SDS011;3764;48.126;11.594;2023-02-15T01:16:19;15.80;;;11.88;;
7444;SDS011;3764;48.126;11.594;2023-02-15T01:18:46;15.65;;;11.20;;
7444;SDS011;3764;48.126;11.594;2023-02-15T01:21:15;15.43;;;10.30;;
7444;SDS011;3764;48.126;11.594;2023-02-15T01:23:43;15.13;;;10.35;;
7444;SDS011;3764;48.126;11.594;2023-02-15T01:26:10;17.15;;;11.40;;
7444;SDS011;3764;48.126;11.594;2023-02-15T01:28:37;20.02;;;11.68;;
7444;SDS011;3764;48.126;11.594;2023-02-15T01:31:07;16.00;;;10.57;;
7444;SDS011;3764;48.126;11.594;2023-02-15T01:33:35;16.08;;;11.55;;
7444;SDS011;3764;48.126;11.594;2023-02-15T01:36:02;18.95;;;11.48;;
7444;SDS011;3764;48.126;11.594;2023-02-15T01:38:30;21.15;;;12.07;;
7444;SDS011;3764;48.126;11.594;2023-02-15T01:40:57;13.82;;;10.07;;
7444;SDS011;3764;48.126;11.594;2023-02-15T01:43:45;15.82;;;11.18;;
7444;SDS011;3764;48.126;11.594;2023-02-15T01:46:16;11.23;;;9.75;;
7444;SDS011;3764;48.126;11.594;2023-02-15T01:48:46;15.98;;;10.95;;
7444;SDS011;3764;48.126;11.594;2023-02-15T01:51:16;19.98;;;11.20;;
7444;SDS011;3764;48.126;11.594;2023-02-15T01:53:46;18.75;;;11.80;;
7444;SDS011;3764;48.126;11.594;2023-02-15T01:56:18;20.73;;;13.45;;
7444;SDS011;3764;48.126;11.594;2023-02-15T01:58:49;18.55;;;12.40;;
7444;SDS011;3764;48.126;11.594;2023-02-15T02:01:18;15.30;;;10.93;;
7444;SDS011;3764;48.126;11.594;2023-02-15T02:03:48;17.45;;;11.50;;
7444;SDS011;3764;48.126;11.594;2023-02-15T02:06:22;16.63;;;10.13;;
7444;SDS011;3764;48.126;11.594;2023-02-15T02:08:50;16.83;;;11.40;;
7444;SDS011;3764;48.126;11.594;2023-02-15T02:11:19;16.70;;;10.85;;
7444;SDS011;3764;48.126;11.594;2023-02-15T02:13:47;15.07;;;10.35;;
7444;SDS011;3764;48.126;11.594;2023-02-15T02:16:16;17.35;;;11.52;;
7444;SDS011;3764;48.126;11.594;2023-02-15T02:18:53;15.48;;;11.07;;
7444;SDS011;3764;48.126;11.594;2023-02-15T02:24:52;17.35;;;10.50;;
7444;SDS011;3764;48.126;11.594;2023-02-15T02:27:37;15.55;;;10.25;;
7444;SDS011;3764;48.126;11.594;2023-02-15T02:33:25;18.20;;;11.20;;
7444;SDS011;3764;48.126;11.594;2023-02-15T02:36:04;15.07;;;11.18;;
7444;SDS011;3764;48.126;11.594;2023-02-15T02:38:42;18.02;;;10.43;;
7444;SDS011;3764;48.126;11.594;2023-02-15T02:41:23;17.98;;;11.70;;
7444;SDS011;3764;48.126;11.594;2023-02-15T02:43:59;15.65;;;11.40;;
7444;SDS011;3764;48.126;11.594;2023-02-15T02:46:32;22.15;;;12.80;;
7444;SDS011;3764;48.126;11.594;2023-02-15T02:49:04;19.65;;;12.35;;
7444;SDS011;3764;48.126;11.594;2023-02-15T02:51:31;19.20;;;13.18;;
7444;SDS011;3764;48.126;11.594;2023-02-15T02:53:59;19.75;;;12.50;;
7444;SDS011;3764;48.126;11.594;2023-02-15T02:56:32;18.88;;;12.80;;
7444;SDS011;3764;48.126;11.594;2023-02-15T02:59:04;17.23;;;12.40;;
7444;SDS011;3764;48.126;11.594;2023-02-15T03:01:37;19.70;;;11.90;;
7444;SDS011;3764;48.126;11.594;2023-02-15T03:04:09;18.67;;;12.27;;
7444;SDS011;3764;48.126;11.594;2023-02-15T03:06:41;21.73;;;11.82;;
7444;SDS011;3764;48.126;11.594;2023-02-15T03:09:14;21.77;;;12.50;;
7444;SDS011;3764;48.126;11.594;2023-02-15T03:11:45;22.85;;;13.20;;
7444;SDS011;3764;48.126;11.594;2023-02-15T03:14:13;20.50;;;12.95;;
7444;SDS011;3764;48.126;11.594;2023-02-15T03:16:42;18.63;;;13.43;;
7444;SDS011;3764;48.126;11.594;2023-02-15T03:19:14;22.80;;;14.25;;
7444;SDS011;3764;48.126;11.594;2023-02-15T03:21:46;20.90;;;12.52;;
7444;SDS011;3764;48.126;11.594;2023-02-15T03:24:29;21.00;;;13.13;;
7444;SDS011;3764;48.126;11.594;2023-02-15T03:27:01;22.90;;;13.32;;
7444;SDS011;3764;48.126;11.594;2023-02-15T03:29:32;22.20;;;12.98;;
7444;SDS011;3764;48.126;11.594;2023-02-15T03:32:01;19.95;;;12.60;;
7444;SDS011;3764;48.126;11.594;2023-02-15T03:34:32;22.85;;;12.93;;
7444;SDS011;3764;48.126;11.594;2023-02-15T03:37:02;26.23;;;12.32;;
7444;SDS011;3764;48.126;11.594;2023-02-15T03:39:37;18.27;;;11.95;;
7444;SDS011;3764;48.126;11.594;2023-02-15T03:42:10;17.17;;;12.55;;
7444;SDS011;3764;48.126;11.594;2023-02-15T03:44:46;22.85;;;13.63;;
7444;SDS011;3764;48.126;11.594;2023-02-15T03:47:18;21.15;;;13.20;;
7444;SDS011;3764;48.126;11.594;2023-02-15T03:49:50;19.33;;;12.75;;
7444;SDS011;3764;48.126;11.594;2023-02-15T03:52:20;20.60;;;12.15;;
7444;SDS011;3764;48.126;11.594;2023-02-15T03:54:48;20.45;;;12.90;;
7444;SDS011;3764;48.126;11.594;2023-02-15T03:57:17;23.27;;;14.32;;
7444;SDS011;3764;48.126;11.594;2023-02-15T04:00:04;18.25;;;13.00;;
7444;SDS011;3764;48.126;11.594;2023-02-15T04:02:57;16.75;;;12.20;;
7444;SDS011;3764;48.126;11.594;2023-02-15T04:05:36;15.98;;;12.43;;
7444;SDS011;3764;48.126;11.594;2023-02-15T04:08:04;18.45;;;11.25;;
7444;SDS011;3764;48.126;11.594;2023-02-15T04:10:31;22.13;;;11.73;;
7444;SDS011;3764;48.126;11.594;2023-02-15T04:13:16;17.88;;;12.20;;
7444;SDS011;3764;48.126;11.594;2023-02-15T04:15:43;18.15;;;11.80;;
7444;SDS011;3764;48.126;11.594;2023-02-15T04:18:27;19.40;;;11.77;;
7444;SDS011;3764;48.126;11.594;2023-02-15T04:21:13;23.17;;;13.07;;
7444;SDS011;3764;48.126;11.594;2023-02-15T04:23:58;23.23;;;13.18;;
7444;SDS011;3764;48.126;11.594;2023-02-15T04:26:43;20.98;;;12.15;;
7444;SDS011;3764;48.126;11.594;2023-02-15T04:29:10;19.58;;;12.65;;
7444;SDS011;3764;48.126;11.594;2023-02-15T04:31:37;23.40;;;13.85;;
7444;SDS011;3764;48.126;11.594;2023-02-15T04:34:04;19.92;;;13.77;;
7444;SDS011;3764;48.126;11.594;2023-02-15T04:36:32;16.50;;;12.25;;
7444;SDS011;3764;48.126;11.594;2023-02-15T04:38:59;23.00;;;12.60;;
7444;SDS011;3764;48.126;11.594;2023-02-15T04:41:26;21.52;;;13.18;;
7444;SDS011;3764;48.126;11.594;2023-02-15T04:43:54;24.75;;;13.85;;
7444;SDS011;3764;48.126;11.594;2023-02-15T04:46:21;21.75;;;12.55;;
7444;SDS011;3764;48.126;11.594;2023-02-15T04:48:48;23.10;;;13.38;;
7444;SDS011;3764;48.126;11.594;2023-02-15T04:51:15;21.23;;;12.30;;
7444;SDS011;3764;48.126;11.594;2023-02-15T04:53:44;20.60;;;13.30;;
7444;SDS011;3764;48.126;11.594;2023-02-15T04:56:11;24.42;;;12.85;;
7444;SDS011;3764;48.126;11.594;2023-02-15T04:58:38;25.65;;;14.02;;
7444;SDS011;3764;48.126;11.594;2023-02-15T05:01:06;23.17;;;14.13;;
7444;SDS011;3764;48.126;11.594;2023-02-15T05:03:33;22.40;;;13.93;;
7444;SDS011;3764;48.126;11.594;2023-02-15T05:06:00;24.13;;;13.13;;
7444;SDS011;3764;48.126;11.594;2023-02-15T05:08:27;30.98;;;12.73;;
7444;SDS011;3764;48.126;11.594;2023-02-15T05:10:56;25.48;;;14.80;;
7444;SDS011;3764;48.126;11.594;2023-02-15T05:13:23;24.45;;;14.25;;
7444;SDS011;3764;48.126;11.594;2023-02-15T05:15:51;29.90;;;14.55;;
7444;SDS011;3764;48.126;11.594;2023-02-15T05:18:19;24.60;;;14.95;;
7444;SDS011;3764;48.126;11.594;2023-02-15T05:20:47;32.85;;;13.75;;
7444;SDS011;3764;48.126;11.594;2023-02-15T05:23:15;20.60;;;12.10;;
7444;SDS011;3764;48.126;11.594;2023-02-15T05:25:45;26.83;;;13.93;;
7444;SDS011;3764;48.126;11.594;2023-02-15T05:28:32;27.00;;;14.65;;
7444;SDS011;3764;48.126;11.594;2023-02-15T05:31:02;21.05;;;14.45;;
7444;SDS011;3764;48.126;11.594;2023-02-15T05:33:31;22.38;;;14.32;;
7444;SDS011;3764;48.126;11.594;2023-02-15T05:35:58;29.08;;;16.63;;
7444;SDS011;3764;48.126;11.594;2023-02-15T05:38:25;31.10;;;14.60;;
7444;SDS011;3764;48.126;11.594;2023-02-15T05:40:53;24.05;;;14.55;;
7444;SDS011;3764;48.126;11.594;2023-02-15T05:43:20;21.85;;;13.13;;
7444;SDS011;3764;48.126;11.594;2023-02-15T05:45:49;22.30;;;13.52;;
7444;SDS011;3764;48.126;11.594;2023-02-15T05:48:18;20.52;;;14.13;;
7444;SDS011;3764;48.126;11.594;2023-02-15T05:50:46;21.23;;;13.65;;
7444;SDS011;3764;48.126;11.594;2023-02-15T05:53:22;39.55;;;13.95;;
7444;SDS011;3764;48.126;11.594;2023-02-15T05:55:50;36.65;;;15.52;;
7444;SDS011;3764;48.126;11.594;2023-02-15T05:58:17;43.20;;;14.68;;
7444;SDS011;3764;48.126;11.594;2023-02-15T06:00:44;27.60;;;15.05;;
7444;SDS011;3764;48.126;11.594;2023-02-15T06:03:12;22.45;;;13.35;;
7444;SDS011;3764;48.126;11.594;2023-02-15T06:05:39;24.20;;;14.63;;
7444;SDS011;3764;48.126;11.594;2023-02-15T06:08:06;27.38;;;15.32;;
7444;SDS011;3764;48.126;11.594;2023-02-15T06:10:33;20.38;;;14.43;;
7444;SDS011;3764;48.126;11.594;2023-02-15T06:13:00;22.63;;;14.13;;
7444;SDS011;3764;48.126;11.594;2023-02-15T06:15:28;21.38;;;13.77;;
7444;SDS011;3764;48.126;11.594;2023-02-15T06:17:55;22.63;;;14.52;;
7444;SDS011;3764;48.126;11.594;2023-02-15T06:20:23;21.10;;;13.63;;
7444;SDS011;3764;48.126;11.594;2023-02-15T06:22:50;22.63;;;14.88;;
7444;SDS011;3764;48.126;11.594;2023-02-15T06:25:17;17.95;;;12.43;;
7444;SDS011;3764;48.126;11.594;2023-02-15T06:27:44;23.67;;;15.18;;
7444;SDS011;3764;48.126;11.594;2023-02-15T06:30:12;27.55;;;17.00;;
7444;SDS011;3764;48.126;11.594;2023-02-15T06:32:39;27.85;;;14.93;;
7444;SDS011;3764;48.126;11.594;2023-02-15T06:35:07;21.20;;;13.82;;
7444;SDS011;3764;48.126;11.594;2023-02-15T06:37:35;25.83;;;14.07;;
7444;SDS011;3764;48.126;11.594;2023-02-15T06:40:02;30.85;;;17.40;;
7444;SDS011;3764;48.126;11.594;2023-02-15T06:42:30;27.17;;;15.20;;
7444;SDS011;3764;48.126;11.594;2023-02-15T06:44:57;23.95;;;15.13;;
7444;SDS011;3764;48.126;11.594;2023-02-15T06:47:25;23.75;;;14.90;;
7444;SDS011;3764;48.126;11.594;2023-02-15T06:49:52;23.45;;;14.90;;
7444;SDS011;3764;48.126;11.594;2023-02-15T06:52:19;25.83;;;14.20;;
7444;SDS011;3764;48.126;11.594;2023-02-15T06:54:47;21.77;;;14.80;;
7444;SDS011;3764;48.126;11.594;2023-02-15T06:57:14;25.02;;;15.18;;
7444;SDS011;3764;48.126;11.594;2023-02-15T06:59:42;24.50;;;14.45;;
7444;SDS011;3764;48.126;11.594;2023-02-15T07:02:09;25.02;;;14.43;;
7444;SDS011;3764;48.126;11.594;2023-02-15T07:04:37;26.05;;;14.63;;
7444;SDS011;3764;48.126;11.594;2023-02-15T07:07:07;20.50;;;14.43;;
7444;SDS011;3764;48.126;11.594;2023-02-15T07:09:36;23.95;;;14.48;;
7444;SDS011;3764;48.126;11.594;2023-02-15T07:12:05;27.02;;;16.35;;
7444;SDS011;3764;48.126;11.594;2023-02-15T07:14:49;26.33;;;15.88;;
7444;SDS011;3764;48.126;11.594;2023-02-15T07:17:16;23.85;;;15.20;;
7444;SDS011;3764;48.126;11.594;2023-02-15T07:19:44;29.90;;;15.13;;
7444;SDS011;3764;48.126;11.594;2023-02-15T07:22:11;26.77;;;15.32;;
7444;SDS011;3764;48.126;11.594;2023-02-15T07:24:38;29.80;;;17.13;;
7444;SDS011;3764;48.126;11.594;2023-02-15T07:27:07;33.33;;;17.55;;
7444;SDS011;3764;48.126;11.594;2023-02-15T07:29:34;31.17;;;15.05;;
7444;SDS011;3764;48.126;11.594;2023-02-15T07:32:01;28.23;;;16.95;;
7444;SDS011;3764;48.126;11.594;2023-02-15T07:34:28;28.45;;;15.95;;
7444;SDS011;3764;48.126;11.594;2023-02-15T07:36:55;30.63;;;14.98;;
7444;SDS011;3764;48.126;11.594;2023-02-15T07:39:22;25.15;;;15.98;;
7444;SDS011;3764;48.126;11.594;2023-02-15T07:41:49;24.67;;;15.68;;
7444;SDS011;3764;48.126;11.594;2023-02-15T07:44:18;23.02;;;14.52;;
7444;SDS011;3764;48.126;11.594;2023-02-15T07:46:45;23.70;;;13.70;;
7444;SDS011;3764;48.126;11.594;2023-02-15T07:49:13;25.90;;;15.57;;
7444;SDS011;3764;48.126;11.594;2023-02-15T07:51:40;25.15;;;15.43;;
7444;SDS011;3764;48.126;11.594;2023-02-15T07:54:08;26.30;;;15.48;;
7444;SDS011;3764;48.126;11.594;2023-02-15T07:56:35;24.23;;;14.73;;
7444;SDS011;3764;48.126;11.594;2023-02-15T07:59:02;23.50;;;14.73;;
7444;SDS011;3764;48.126;11.594;2023-02-15T08:01:32;25.27;;;14.63;;
7444;SDS011;3764;48.126;11.594;2023-02-15T08:04:01;23.80;;;14.55;;
7444;SDS011;3764;48.126;11.594;2023-02-15T08:06:29;24.83;;;16.63;;
7444;SDS011;3764;48.126;11.594;2023-02-15T08:08:57;21.05;;;13.35;;
7444;SDS011;3764;48.126;11.594;2023-02-15T08:11:26;27.30;;;16.23;;
7444;SDS011;3764;48.126;11.594;2023-02-15T08:14:02;33.08;;;19.08;;
7444;SDS011;3764;48.126;11.594;2023-02-15T08:16:34;21.08;;;14.73;;
7444;SDS011;3764;48.126;11.594;2023-02-15T08:19:03;23.67;;;15.23;;
7444;SDS011;3764;48.126;11.594;2023-02-15T08:21:32;22.70;;;13.68;;
7444;SDS011;3764;48.126;11.594;2023-02-15T08:24:00;22.25;;;14.18;;
7444;SDS011;3764;48.126;11.594;2023-02-15T08:26:27;22.63;;;13.68;;
7444;SDS011;3764;48.126;11.594;2023-02-15T08:28:55;20.58;;;12.30;;
7444;SDS011;3764;48.126;11.594;2023-02-15T08:31:22;19.77;;;14.10;;
7444;SDS011;3764;48.126;11.594;2023-02-15T08:33:52;22.55;;;15.00;;
7444;SDS011;3764;48.126;11.594;2023-02-15T08:36:21;20.30;;;14.15;;
7444;SDS011;3764;48.126;11.594;2023-02-15T08:38:49;23.10;;;14.70;;
7444;SDS011;3764;48.126;11.594;2023-02-15T08:41:17;23.10;;;14.90;;
7444;SDS011;3764;48.126;11.594;2023-02-15T08:43:46;22.20;;;14.90;;
7444;SDS011;3764;48.126;11.594;2023-02-15T08:46:14;24.73;;;14.88;;
7444;SDS011;3764;48.126;11.594;2023-02-15T08:48:42;22.70;;;16.48;;
7444;SDS011;3764;48.126;11.594;2023-02-15T08:51:12;22.50;;;15.02;;
7444;SDS011;3764;48.126;11.594;2023-02-15T08:53:40;26.95;;;16.20;;
7444;SDS011;3764;48.126;11.594;2023-02-15T08:56:10;21.58;;;14.40;;
7444;SDS011;3764;48.126;11.594;2023-02-15T08:58:38;22.75;;;15.35;;
7444;SDS011;3764;48.126;11.594;2023-02-15T09:01:08;22.13;;;14.30;;
7444;SDS011;3764;48.126;11.594;2023-02-15T09:03:36;29.35;;;15.65;;
7444;SDS011;3764;48.126;11.594;2023-02-15T09:06:05;25.35;;;16.42;;
7444;SDS011;3764;48.126;11.594;2023-02-15T09:08:34;27.63;;;17.77;;
7444;SDS011;3764;48.126;11.594;2023-02-15T09:11:05;22.90;;;15.45;;
7444;SDS011;3764;48.126;11.594;2023-02-15T09:13:33;21.67;;;14.35;;
7444;SDS011;3764;48.126;11.594;2023-02-15T09:16:01;26.25;;;15.70;;
7444;SDS011;3764;48.126;11.594;2023-02-15T09:18:29;24.77;;;15.32;;
7444;SDS011;3764;48.126;11.594;2023-02-15T09:21:03;23.52;;;16.10;;
7444;SDS011;3764;48.126;11.594;2023-02-15T09:23:31;22.55;;;15.50;;
7444;SDS011;3764;48.126;11.594;2023-02-15T09:26:04;35.15;;;16.45;;
7444;SDS011;3764;48.126;11.594;2023-02-15T09:28:32;19.80;;;13.77;;
7444;SDS011;3764;48.126;11.594;2023-02-15T09:31:06;19.67;;;13.57;;
7444;SDS011;3764;48.126;11.594;2023-02-15T09:33:35;19.50;;;14.07;;
7444;SDS011;3764;48.126;11.594;2023-02-15T09:36:03;23.38;;;14.85;;
7444;SDS011;3764;48.126;11.594;2023-02-15T09:38:30;23.48;;;14.52;;
7444;SDS011;3764;48.126;11.594;2023-02-15T09:41:06;22.00;;;14.30;;
7444;SDS011;3764;48.126;11.594;2023-02-15T09:43:47;25.48;;;14.50;;
7444;SDS011;3764;48.126;11.594;2023-02-15T09:46:27;23.90;;;14.40;;
7444;SDS011;3764;48.126;11.594;2023-02-15T09:49:08;19.83;;;14.30;;
7444;SDS011;3764;48.126;11.594;2023-02-15T09:54:48;22.45;;;13.60;;
7444;SDS011;3764;48.126;11.594;2023-02-15T09:57:30;20.95;;;15.50;;
7444;SDS011;3764;48.126;11.594;2023-02-15T10:00:06;25.15;;;15.07;;
7444;SDS011;3764;48.126;11.594;2023-02-15T10:02:54;21.45;;;17.05;;
7444;SDS011;3764;48.126;11.594;2023-02-15T10:05:33;20.73;;;14.13;;
7444;SDS011;3764;48.126;11.594;2023-02-15T10:11:08;18.73;;;13.90;;
7444;SDS011;3764;48.126;11.594;2023-02-15T10:14:03;22.60;;;14.45;;
7444;SDS011;3764;48.126;11.594;2023-02-15T10:16:41;22.88;;;14.25;;
7444;SDS011;3764;48.126;11.594;2023-02-15T10:19:19;20.10;;;13.80;;
7444;SDS011;3764;48.126;11.594;2023-02-15T10:21:58;19.70;;;12.80;;
7444;SDS011;3764;48.126;11.594;2023-02-15T10:24:45;19.63;;;13.10;;
7444;SDS011;3764;48.126;11.594;2023-02-15T10:27:23;15.15;;;12.10;;
7444;SDS011;3764;48.126;11.594;2023-02-15T10:29:54;19.35;;;14.40;;
7444;SDS011;3764;48.126;11.594;2023-02-15T10:32:30;18.35;;;13.73;;
7444;SDS011;3764;48.126;11.594;2023-02-15T10:35:07;20.08;;;14.80;;
7444;SDS011;3764;48.126;11.594;2023-02-15T10:37:53;22.73;;;15.73;;
7444;SDS011;3764;48.126;11.594;2023-02-15T10:40:32;22.67;;;14.38;;
7444;SDS011;3764;48.126;11.594;2023-02-15T10:43:15;18.98;;;14.48;;
7444;SDS011;3764;48.126;11.594;2023-02-15T10:45:56;18.42;;;12.50;;
7444;SDS011;3764;48.126;11.594;2023-02-15T10:48:33;21.48;;;13.48;;
7444;SDS011;3764;48.126;11.594;2023-02-15T10:51:15;15.60;;;11.77;;
7444;SDS011;3764;48.126;11.594;2023-02-15T10:53:51;28.42;;;15.65;;
7444;SDS011;3764;48.126;11.594;2023-02-15T10:56:29;21.80;;;15.10;;
7444;SDS011;3764;48.126;11.594;2023-02-15T10:59:09;19.15;;;14.20;;
7444;SDS011;3764;48.126;11.594;2023-02-15T11:01:49;22.80;;;16.33;;
7444;SDS011;3764;48.126;11.594;2023-02-15T11:07:18;21.70;;;16.25;;
7444;SDS011;3764;48.126;11.594;2023-02-15T11:09:49;22.67;;;14.82;;
7444;SDS011;3764;48.126;11.594;2023-02-15T11:12:20;23.98;;;16.35;;
7444;SDS011;3764;48.126;11.594;2023-02-15T11:14:51;26.05;;;15.95;;
7444;SDS011;3764;48.126;11.594;2023-02-15T11:17:25;25.55;;;16.80;;
7444;SDS011;3764;48.126;11.594;2023-02-15T11:19:58;22.25;;;15.60;;
7444;SDS011;3764;48.126;11.594;2023-02-15T11:22:32;24.80;;;16.63;;
7444;SDS011;3764;48.126;11.594;2023-02-15T11:25:00;27.08;;;17.38;;
7444;SDS011;3764;48.126;11.594;2023-02-15T11:27:40;17.80;;;13.80;;
7444;SDS011;3764;48.126;11.594;2023-02-15T11:30:12;19.65;;;14.82;;
7444;SDS011;3764;48.126;11.594;2023-02-15T11:32:45;26.60;;;17.95;;
7444;SDS011;3764;48.126;11.594;2023-02-15T11:35:18;26.98;;;17.88;;
7444;SDS011;3764;48.126;11.594;2023-02-15T11:37:50;25.38;;;16.90;;
7444;SDS011;3764;48.126;11.594;2023-02-15T11:40:22;22.52;;;17.45;;
7444;SDS011;3764;48.126;11.594;2023-02-15T11:42:52;27.02;;;17.13;;
7444;SDS011;3764;48.126;11.594;2023-02-15T11:45:24;21.88;;;16.00;;
7444;SDS011;3764;48.126;11.594;2023-02-15T11:47:55;24.95;;;17.75;;
7444;SDS011;3764;48.126;11.594;2023-02-15T11:52:51;25.23;;;16.45;;
7444;SDS011;3764;48.126;11.594;2023-02-15T11:55:21;23.73;;;16.88;;
7444;SDS011;3764;48.126;11.594;2023-02-15T11:57:52;20.77;;;16.40;;
7444;SDS011;3764;48.126;11.594;2023-02-15T12:00:26;15.45;;;11.68;;
7444;SDS011;3764;48.126;11.594;2023-02-15T12:03:03;16.90;;;11.88;;
7444;SDS011;3764;48.126;11.594;2023-02-15T12:05:39;29.73;;;16.30;;
7444;SDS011;3764;48.126;11.594;2023-02-15T12:08:12;21.55;;;15.50;;
7444;SDS011;3764;48.126;11.594;2023-02-15T12:10:46;21.05;;;15.85;;
7444;SDS011;3764;48.126;11.594;2023-02-15T12:13:29;25.25;;;15.43;;
7444;SDS011;3764;48.126;11.594;2023-02-15T12:15:56;19.33;;;14.95;;
7444;SDS011;3764;48.126;11.594;2023-02-15T12:18:35;23.38;;;15.95;;
7444;SDS011;3764;48.126;11.594;2023-02-15T12:21:05;23.38;;;17.45;;
7444;SDS011;3764;48.126;11.594;2023-02-15T12:23:39;20.25;;;16.90;;
7444;SDS011;3764;48.126;11.594;2023-02-15T12:26:09;26.52;;;16.95;;
7444;SDS011;3764;48.126;11.594;2023-02-15T12:28:37;23.90;;;15.77;;
7444;SDS011;3764;48.126;11.594;2023-02-15T12:31:07;30.70;;;16.63;;
7444;SDS011;3764;48.126;11.594;2023-02-15T12:33:47;21.70;;;17.08;;
7444;SDS011;3764;48.126;11.594;2023-02-15T12:36:17;22.92;;;17.67;;
7444;SDS011;3764;48.126;11.594;2023-02-15T12:41:29;23.67;;;16.70;;
7444;SDS011;3764;48.126;11.594;2023-02-15T12:44:03;24.05;;;17.15;;
7444;SDS011;3764;48.126;11.594;2023-02-15T12:46:32;21.30;;;15.43;;
7444;SDS011;3764;48.126;11.594;2023-02-15T12:49:13;20.65;;;15.50;;
7444;SDS011;3764;48.126;11.594;2023-02-15T12:51:47;18.75;;;14.68;;
7444;SDS011;3764;48.126;11.594;2023-02-15T12:54:17;24.88;;;15.40;;
7444;SDS011;3764;48.126;11.594;2023-02-15T12:56:52;25.52;;;16.15;;
7444;SDS011;3764;48.126;11.594;2023-02-15T12:59:19;18.73;;;13.30;;
7444;SDS011;3764;48.126;11.594;2023-02-15T13:01:47;16.10;;;13.75;;
7444;SDS011;3764;48.126;11.594;2023-02-15T13:04:18;22.35;;;15.52;;
7444;SDS011;3764;48.126;11.594;2023-02-15T13:06:49;21.48;;;14.38;;
7444;SDS011;3764;48.126;11.594;2023-02-15T13:09:19;17.23;;;13.25;;
7444;SDS011;3764;48.126;11.594;2023-02-15T13:11:49;17.13;;;13.60;;
7444;SDS011;3764;48.126;11.594;2023-02-15T13:14:16;18.58;;;12.73;;
7444;SDS011;3764;48.126;11.594;2023-02-15T13:16:45;18.42;;;13.27;;
7444;SDS011;3764;48.126;11.594;2023-02-15T13:19:16;23.70;;;16.38;;
7444;SDS011;3764;48.126;11.594;2023-02-15T13:21:46;21.50;;;16.80;;
7444;SDS011;3764;48.126;11.594;2023-02-15T13:24:17;20.27;;;15.38;;
7444;SDS011;3764;48.126;11.594;2023-02-15T13:26:47;21.73;;;16.25;;
7444;SDS011;3764;48.126;11.594;2023-02-15T13:29:16;26.65;;;15.82;;
7444;SDS011;3764;48.126;11.594;2023-02-15T13:31:47;19.75;;;13.60;;
7444;SDS011;3764;48.126;11.594;2023-02-15T13:34:18;19.55;;;14.20;;
7444;SDS011;3764;48.126;11.594;2023-02-15T13:36:51;20.27;;;14.25;;
7444;SDS011;3764;48.126;11.594;2023-02-15T13:39:26;20.25;;;15.80;;
7444;SDS011;3764;48.126;11.594;2023-02-15T13:42:02;24.50;;;15.07;;
7444;SDS011;3764;48.126;11.594;2023-02-15T13:47:37;18.63;;;14.85;;
7444;SDS011;3764;48.126;11.594;2023-02-15T13:50:28;16.20;;;12.68;;
7444;SDS011;3764;48.126;11.594;2023-02-15T13:53:10;17.45;;;13.18;;
7444;SDS011;3764;48.126;11.594;2023-02-15T13:56:05;15.48;;;12.85;;
7444;SDS011;3764;48.126;11.594;2023-02-15T13:58:51;15.60;;;12.75;;
7444;SDS011;3764;48.126;11.594;2023-02-15T14:01:34;20.65;;;13.23;;
7444;SDS011;3764;48.126;11.594;2023-02-15T14:04:09;20.05;;;14.55;;
7444;SDS011;3764;48.126;11.594;2023-02-15T14:07:09;19.73;;;13.25;;
7444;SDS011;3764;48.126;11.594;2023-02-15T14:09:47;15.73;;;13.00;;
7444;SDS011;3764;48.126;11.594;2023-02-15T14:12:38;17.85;;;14.25;;
7444;SDS011;3764;48.126;11.594;2023-02-15T14:15:26;17.02;;;13.55;;
7444;SDS011;3764;48.126;11.594;2023-02-15T14:18:04;22.70;;;13.05;;
7444;SDS011;3764;48.126;11.594;2023-02-15T14:20:43;16.05;;;12.20;;
7444;SDS011;3764;48.126;11.594;2023-02-15T14:23:22;18.20;;;12.82;;
7444;SDS011;3764;48.126;11.594;2023-02-15T14:26:02;16.02;;;12.70;;
7444;SDS011;3764;48.126;11.594;2023-02-15T14:28:37;17.63;;;12.45;;
7444;SDS011;3764;48.126;11.594;2023-02-15T14:31:11;18.05;;;13.77;;
7444;SDS011;3764;48.126;11.594;2023-02-15T14:33:40;14.68;;;12.38;;
7444;SDS011;3764;48.126;11.594;2023-02-15T14:36:10;17.30;;;13.98;;
7444;SDS011;3764;48.126;11.594;2023-02-15T14:38:49;17.30;;;13.05;;
7444;SDS011;3764;48.126;11.594;2023-02-15T14:41:23;19.88;;;12.60;;
7444;SDS011;3764;48.126;11.594;2023-02-15T14:43:58;20.60;;;14.93;;
7444;SDS011;3764;48.126;11.594;2023-02-15T14:46:34;18.88;;;13.30;;
7444;SDS011;3764;48.126;11.594;2023-02-15T14:49:05;15.50;;;12.32;;
7444;SDS011;3764;48.126;11.594;2023-02-15T14:51:56;21.42;;;14.77;;
7444;SDS011;3764;48.126;11.594;2023-02-15T14:57:33;21.83;;;14.20;;
7444;SDS011;3764;48.126;11.594;2023-02-15T15:03:19;18.30;;;13.02;;
7444;SDS011;3764;48.126;11.594;2023-02-15T15:05:50;21.30;;;13.63;;
7444;SDS011;3764;48.126;11.594;2023-02-15T15:08:21;15.93;;;13.30;;
7444;SDS011;3764;48.126;11.594;2023-02-15T15:10:54;18.50;;;14.40;;
7444;SDS011;3764;48.126;11.594;2023-02-15T15:13:35;20.25;;;15.15;;
7444;SDS011;3764;48.126;11.594;2023-02-15T15:16:25;25.20;;;16.10;;
7444;SDS011;3764;48.126;11.594;2023-02-15T15:19:12;20.65;;;14.80;;
7444;SDS011;3764;48.126;11.594;2023-02-15T15:22:30;19.35;;;14.68;;
7444;SDS011;3764;48.126;11.594;2023-02-15T15:24:59;19.05;;;14.55;;
7444;SDS011;3764;48.126;11.594;2023-02-15T15:27:40;20.63;;;14.25;;
7444;SDS011;3764;48.126;11.594;2023-02-15T15:42:49;25.50;;;16.33;;